sensor_id;sensor_type;location;lat;lon;timestamp;pressure;altitude;pressure_sealevel;temperature;humidity
50652;BME280;66928;52.086;5.240;2023-05-25T00:00:29;102444.0;;;12.16;78.77
50652;BME280;66928;52.086;5.240;2023-05-25T00:14:55;102443.0;;;12.09;78.89
50652;BME280;66928;52.086;5.240;2023-05-25T00:16:31;102442.0;;;11.99;79.28
50652;BME280;66928;52.086;5.240;2023-05-25T00:48:40;102455.0;;;11.47;81.11
50652;BME280;66928;52.086;5.240;2023-05-25T00:50:17;102458.0;;;11.44;81.25
50652;BME280;66928;52.086;5.240;2023-05-25T01:05:13;102463.00000000001;;;11.22;81.53
50652;BME280;66928;52.086;5.240;2023-05-25T01:06:51;102463.00000000001;;;11.23;81.72
50652;BME280;66928;52.086;5.240;2023-05-25T01:39:44;102486.99999999999;;;11.17;82.17
50652;BME280;66928;52.086;5.240;2023-05-25T03:02:49;102508.0;;;10.61;82.58
50652;BME280;66928;52.086;5.240;2023-05-25T03:34:53;102529.0;;;9.91;84.42
50652;BME280;66928;52.086;5.240;2023-05-25T05:41:39;102597.0;;;12.18;82.34
50652;BME280;66928;52.086;5.240;2023-05-25T05:43:15;102595.0;;;12.26;82.59
50652;BME280;66928;52.086;5.240;2023-05-25T05:44:51;102598.0;;;12.22;83.27
50652;BME280;66928;52.086;5.240;2023-05-25T05:48:05;102602.0;;;12.27;83.33
50652;BME280;66928;52.086;5.240;2023-05-25T05:49:41;102599.0;;;12.4;83.17
50652;BME280;66928;52.086;5.240;2023-05-25T05:51:17;102600.0;;;12.36;83.65
50652;BME280;66928;52.086;5.240;2023-05-25T05:52:53;102602.0;;;12.39;83.66
50652;BME280;66928;52.086;5.240;2023-05-25T05:56:05;102605.0;;;12.4;83.65
50652;BME280;66928;52.086;5.240;2023-05-25T05:57:51;102611.99999999999;;;12.3;84.48
50652;BME280;66928;52.086;5.240;2023-05-25T05:59:27;102617.0;;;12.39;84.31
50652;BME280;66928;52.086;5.240;2023-05-25T06:02:40;102616.00000000001;;;12.45;84.53
50652;BME280;66928;52.086;5.240;2023-05-25T06:10:13;102631.0;;;12.47;84.38
50652;BME280;66928;52.086;5.240;2023-05-25T06:11:49;102633.0;;;12.53;83.66
50652;BME280;66928;52.086;5.240;2023-05-25T06:15:01;102632.0;;;12.58;83.27
50652;BME280;66928;52.086;5.240;2023-05-25T06:16:37;102636.99999999999;;;12.7;82.5
50652;BME280;66928;52.086;5.240;2023-05-25T06:18:14;102634.99999999999;;;12.75;81.97
50652;BME280;66928;52.086;5.240;2023-05-25T06:21:26;102638.00000000001;;;12.78;81.8
50652;BME280;66928;52.086;5.240;2023-05-25T06:23:02;102641.00000000001;;;12.8;81.94
50652;BME280;66928;52.086;5.240;2023-05-25T06:24:38;102639.00000000001;;;12.97;81.37
50652;BME280;66928;52.086;5.240;2023-05-25T06:27:50;102641.00000000001;;;12.93;81.3
50652;BME280;66928;52.086;5.240;2023-05-25T06:29:26;102642.0;;;12.93;81.2
50652;BME280;66928;52.086;5.240;2023-05-25T06:31:03;102640.00000000001;;;13.02;80.56
50652;BME280;66928;52.086;5.240;2023-05-25T06:32:39;102641.00000000001;;;12.99;80.12
50652;BME280;66928;52.086;5.240;2023-05-25T06:35:52;102639.00000000001;;;12.98;80.44
50652;BME280;66928;52.086;5.240;2023-05-25T06:37:29;102642.0;;;12.92;80.24
50652;BME280;66928;52.086;5.240;2023-05-25T06:39:05;102649.0;;;13.06;79.78
50652;BME280;66928;52.086;5.240;2023-05-25T06:42:17;102654.0;;;13.05;80.02
50652;BME280;66928;52.086;5.240;2023-05-25T06:43:53;102650.0;;;13.0;79.61
50652;BME280;66928;52.086;5.240;2023-05-25T06:45:30;102650.0;;;13.17;79.3
50652;BME280;66928;52.086;5.240;2023-05-25T06:48:42;102658.0;;;13.4;78.61
50652;BME280;66928;52.086;5.240;2023-05-25T06:50:19;102659.99999999999;;;13.46;77.86
50652;BME280;66928;52.086;5.240;2023-05-25T06:51:55;102654.0;;;13.57;77.36
50652;BME280;66928;52.086;5.240;2023-05-25T06:53:31;102656.0;;;13.74;77.05
50652;BME280;66928;52.086;5.240;2023-05-25T06:56:44;102653.0;;;13.78;76.16
50652;BME280;66928;52.086;5.240;2023-05-25T06:58:20;102651.0;;;13.91;75.81
50652;BME280;66928;52.086;5.240;2023-05-25T06:59:56;102658.0;;;13.85;75.89
50652;BME280;66928;52.086;5.240;2023-05-25T07:03:08;102658.0;;;13.89;75.59
50652;BME280;66928;52.086;5.240;2023-05-25T07:04:44;102656.0;;;14.16;74.75
50652;BME280;66928;52.086;5.240;2023-05-25T07:06:20;102663.00000000001;;;14.12;74.11
50652;BME280;66928;52.086;5.240;2023-05-25T07:09:33;102666.00000000001;;;14.16;74.02
50652;BME280;66928;52.086;5.240;2023-05-25T07:11:09;102668.0;;;14.18;74.12
50652;BME280;66928;52.086;5.240;2023-05-25T07:12:45;102669.0;;;14.44;72.91
50652;BME280;66928;52.086;5.240;2023-05-25T07:15:58;102667.0;;;14.51;72.52
50652;BME280;66928;52.086;5.240;2023-05-25T07:17:33;102671.0;;;14.7;71.89
50652;BME280;66928;52.086;5.240;2023-05-25T07:19:10;102673.0;;;14.58;71.94
50652;BME280;66928;52.086;5.240;2023-05-25T07:20:46;102673.0;;;14.55;72.16
50652;BME280;66928;52.086;5.240;2023-05-25T07:23:58;102674.0;;;14.67;71.64
50652;BME280;66928;52.086;5.240;2023-05-25T07:25:34;102674.0;;;14.47;71.59
50652;BME280;66928;52.086;5.240;2023-05-25T07:27:10;102675.0;;;14.54;71.37
50652;BME280;66928;52.086;5.240;2023-05-25T07:30:23;102677.0;;;14.53;71.7
50652;BME280;66928;52.086;5.240;2023-05-25T07:31:59;102679.0;;;14.54;71.55
50652;BME280;66928;52.086;5.240;2023-05-25T07:33:35;102680.0;;;14.62;71.62
50652;BME280;66928;52.086;5.240;2023-05-25T07:36:47;102679.0;;;14.66;71.86
50652;BME280;66928;52.086;5.240;2023-05-25T07:38:23;102679.0;;;14.6;71.19
50652;BME280;66928;52.086;5.240;2023-05-25T07:40:00;102684.99999999999;;;14.56;71.19
50652;BME280;66928;52.086;5.240;2023-05-25T07:41:36;102692.0;;;14.51;71.47
50652;BME280;66928;52.086;5.240;2023-05-25T07:44:48;102683.99999999999;;;14.63;71.02
50652;BME280;66928;52.086;5.240;2023-05-25T07:46:24;102692.0;;;14.69;70.42
50652;BME280;66928;52.086;5.240;2023-05-25T07:48:00;102684.99999999999;;;14.83;69.89
50652;BME280;66928;52.086;5.240;2023-05-25T07:51:13;102692.0;;;14.81;69.67
50652;BME280;66928;52.086;5.240;2023-05-25T07:52:49;102692.0;;;14.63;70.16
50652;BME280;66928;52.086;5.240;2023-05-25T07:54:25;102695.0;;;14.71;70.31
50652;BME280;66928;52.086;5.240;2023-05-25T07:57:37;102696.0;;;14.8;70.34
50652;BME280;66928;52.086;5.240;2023-05-25T07:59:14;102700.0;;;14.92;68.73
50652;BME280;66928;52.086;5.240;2023-05-25T08:00:50;102696.0;;;14.81;68.8
50652;BME280;66928;52.086;5.240;2023-05-25T08:04:02;102696.0;;;14.79;68.83
50652;BME280;66928;52.086;5.240;2023-05-25T08:05:38;102704.0;;;14.81;68.55
50652;BME280;66928;52.086;5.240;2023-05-25T08:07:15;102705.0;;;14.81;67.98
50652;BME280;66928;52.086;5.240;2023-05-25T08:08:51;102708.0;;;14.78;68.52
50652;BME280;66928;52.086;5.240;2023-05-25T08:12:04;102707.0;;;14.82;68.3
50652;BME280;66928;52.086;5.240;2023-05-25T08:13:40;102713.00000000001;;;14.96;68.24
50652;BME280;66928;52.086;5.240;2023-05-25T08:15:17;102715.00000000001;;;14.76;67.97
50652;BME280;66928;52.086;5.240;2023-05-25T08:18:29;102711.99999999999;;;14.86;66.74
50652;BME280;66928;52.086;5.240;2023-05-25T08:20:07;102716.00000000001;;;14.83;67.11
50652;BME280;66928;52.086;5.240;2023-05-25T08:21:43;102717.0;;;14.87;67.16
50652;BME280;66928;52.086;5.240;2023-05-25T08:24:55;102715.00000000001;;;14.86;66.66
50652;BME280;66928;52.086;5.240;2023-05-25T08:26:32;102717.0;;;14.92;67.19
50652;BME280;66928;52.086;5.240;2023-05-25T08:28:08;102720.0;;;14.98;66.5
50652;BME280;66928;52.086;5.240;2023-05-25T08:29:44;102725.0;;;15.07;66.33
50652;BME280;66928;52.086;5.240;2023-05-25T08:32:56;102723.0;;;15.13;65.77
50652;BME280;66928;52.086;5.240;2023-05-25T08:34:32;102728.0;;;15.31;65.6
50652;BME280;66928;52.086;5.240;2023-05-25T08:36:09;102729.0;;;15.25;65.27
50652;BME280;66928;52.086;5.240;2023-05-25T08:39:21;102731.0;;;15.26;65.58
50652;BME280;66928;52.086;5.240;2023-05-25T08:41:02;102736.99999999999;;;15.08;64.87
50652;BME280;66928;52.086;5.240;2023-05-25T08:42:40;102739.00000000001;;;15.29;64.44
50652;BME280;66928;52.086;5.240;2023-05-25T08:45:54;102740.00000000001;;;15.42;64.44
50652;BME280;66928;52.086;5.240;2023-05-25T08:47:30;102734.99999999999;;;15.39;64.12
50652;BME280;66928;52.086;5.240;2023-05-25T08:49:10;102743.0;;;15.56;63.48
50652;BME280;66928;52.086;5.240;2023-05-25T08:50:48;102733.99999999999;;;15.43;63.58
50652;BME280;66928;52.086;5.240;2023-05-25T08:54:08;102729.0;;;15.35;63.38
50652;BME280;66928;52.086;5.240;2023-05-25T08:55:44;102730.0;;;15.35;64.22
50652;BME280;66928;52.086;5.240;2023-05-25T08:57:25;102729.0;;;15.4;63.92
50652;BME280;66928;52.086;5.240;2023-05-25T08:59:10;102728.0;;;15.47;62.92
50652;BME280;66928;52.086;5.240;2023-05-25T09:02:38;102720.0;;;15.54;62.98
50652;BME280;66928;52.086;5.240;2023-05-25T09:04:17;102724.0;;;15.62;63.08
50652;BME280;66928;52.086;5.240;2023-05-25T09:05:55;102720.0;;;15.87;61.54
50652;BME280;66928;52.086;5.240;2023-05-25T09:07:32;102722.0;;;15.83;59.96
50652;BME280;66928;52.086;5.240;2023-05-25T09:10:45;102720.0;;;15.79;58.2
50652;BME280;66928;52.086;5.240;2023-05-25T09:12:22;102728.0;;;15.85;56.31
50652;BME280;66928;52.086;5.240;2023-05-25T09:13:59;102733.0;;;15.98;55.04
50652;BME280;66928;52.086;5.240;2023-05-25T09:17:11;102729.0;;;15.96;54.86
50652;BME280;66928;52.086;5.240;2023-05-25T09:18:48;102727.0;;;15.97;54.11
50652;BME280;66928;52.086;5.240;2023-05-25T09:20:24;102731.0;;;15.97;54.91
50652;BME280;66928;52.086;5.240;2023-05-25T09:22:00;102734.99999999999;;;15.95;55.38
50652;BME280;66928;52.086;5.240;2023-05-25T09:25:16;102733.0;;;15.94;56.25
50652;BME280;66928;52.086;5.240;2023-05-25T09:26:54;102730.0;;;15.96;56.48
50652;BME280;66928;52.086;5.240;2023-05-25T09:28:30;102736.99999999999;;;16.0;56.83
50652;BME280;66928;52.086;5.240;2023-05-25T09:31:43;102728.0;;;15.93;57.81
50652;BME280;66928;52.086;5.240;2023-05-25T09:33:19;102726.0;;;16.02;57.98
50652;BME280;66928;52.086;5.240;2023-05-25T09:34:55;102729.0;;;15.97;57.59
50652;BME280;66928;52.086;5.240;2023-05-25T09:36:41;102728.0;;;15.94;58.0
50652;BME280;66928;52.086;5.240;2023-05-25T09:39:53;102724.0;;;16.09;58.04
50652;BME280;66928;52.086;5.240;2023-05-25T09:41:32;102721.0;;;16.25;57.83
50652;BME280;66928;52.086;5.240;2023-05-25T09:43:10;102717.0;;;16.34;57.68
50652;BME280;66928;52.086;5.240;2023-05-25T09:46:22;102719.0;;;16.3;57.32
50652;BME280;66928;52.086;5.240;2023-05-25T09:47:58;102715.00000000001;;;16.61;56.99
50652;BME280;66928;52.086;5.240;2023-05-25T09:49:34;102711.99999999999;;;16.57;55.02
50652;BME280;66928;52.086;5.240;2023-05-25T09:52:48;102717.0;;;16.66;55.37
50652;BME280;66928;52.086;5.240;2023-05-25T09:54:24;102715.00000000001;;;16.54;55.98
50652;BME280;66928;52.086;5.240;2023-05-25T09:56:00;102722.0;;;16.5;56.89
50652;BME280;66928;52.086;5.240;2023-05-25T09:57:37;102734.99999999999;;;16.52;57.52
50652;BME280;66928;52.086;5.240;2023-05-25T10:00:52;102727.0;;;16.4;57.95
50652;BME280;66928;52.086;5.240;2023-05-25T10:02:27;102732.0;;;16.31;58.43
50652;BME280;66928;52.086;5.240;2023-05-25T10:04:05;102726.0;;;16.43;58.55
50652;BME280;66928;52.086;5.240;2023-05-25T10:07:17;102723.0;;;16.32;58.75
50652;BME280;66928;52.086;5.240;2023-05-25T10:08:55;102729.0;;;16.34;58.93
50652;BME280;66928;52.086;5.240;2023-05-25T10:10:33;102723.0;;;16.34;58.87
50652;BME280;66928;52.086;5.240;2023-05-25T10:13:49;102718.0;;;16.38;59.06
50652;BME280;66928;52.086;5.240;2023-05-25T10:15:28;102728.0;;;16.34;58.93
50652;BME280;66928;52.086;5.240;2023-05-25T10:17:05;102718.0;;;16.5;58.16
50652;BME280;66928;52.086;5.240;2023-05-25T10:18:47;102718.0;;;16.75;57.91
50652;BME280;66928;52.086;5.240;2023-05-25T10:22:09;102718.0;;;16.95;57.73
50652;BME280;66928;52.086;5.240;2023-05-25T10:23:51;102723.0;;;16.89;58.38
50652;BME280;66928;52.086;5.240;2023-05-25T10:25:32;102728.0;;;16.87;58.17
50652;BME280;66928;52.086;5.240;2023-05-25T10:27:16;102734.99999999999;;;16.89;58.75
50652;BME280;66928;52.086;5.240;2023-05-25T10:28:59;102734.99999999999;;;16.72;59.37
50652;BME280;66928;52.086;5.240;2023-05-25T10:32:16;102742.0;;;16.77;59.8
50652;BME280;66928;52.086;5.240;2023-05-25T10:33:53;102741.00000000001;;;16.87;59.97
50652;BME280;66928;52.086;5.240;2023-05-25T10:35:30;102740.00000000001;;;16.86;59.74
50652;BME280;66928;52.086;5.240;2023-05-25T10:38:44;102738.00000000001;;;16.9;59.22
50652;BME280;66928;52.086;5.240;2023-05-25T10:40:20;102742.0;;;16.66;60.24
50652;BME280;66928;52.086;5.240;2023-05-25T10:41:57;102744.0;;;16.56;60.38
50652;BME280;66928;52.086;5.240;2023-05-25T10:43:35;102742.0;;;16.54;60.12
50652;BME280;66928;52.086;5.240;2023-05-25T10:46:48;102734.99999999999;;;16.86;59.44
50652;BME280;66928;52.086;5.240;2023-05-25T10:48:34;102733.0;;;16.86;59.37
50652;BME280;66928;52.086;5.240;2023-05-25T10:50:19;102736.99999999999;;;16.89;58.77
50652;BME280;66928;52.086;5.240;2023-05-25T10:51:57;102732.0;;;16.93;58.13
50652;BME280;66928;52.086;5.240;2023-05-25T10:55:10;102734.99999999999;;;17.11;57.65
50652;BME280;66928;52.086;5.240;2023-05-25T10:57:19;102733.99999999999;;;17.23;57.29
50652;BME280;66928;52.086;5.240;2023-05-25T10:58:58;102731.0;;;17.28;56.07
50652;BME280;66928;52.086;5.240;2023-05-25T11:00:34;102733.0;;;17.32;55.82
50652;BME280;66928;52.086;5.240;2023-05-25T11:03:47;102728.0;;;17.45;55.24
50652;BME280;66928;52.086;5.240;2023-05-25T11:05:33;102733.99999999999;;;17.52;54.75
50652;BME280;66928;52.086;5.240;2023-05-25T11:07:13;102734.99999999999;;;17.3;55.03
50652;BME280;66928;52.086;5.240;2023-05-25T11:08:53;102731.0;;;17.27;55.33
50652;BME280;66928;52.086;5.240;2023-05-25T11:12:38;102731.0;;;17.23;55.25
50652;BME280;66928;52.086;5.240;2023-05-25T11:14:19;102723.0;;;17.27;53.23
50652;BME280;66928;52.086;5.240;2023-05-25T11:16:13;102727.0;;;17.31;52.0
50652;BME280;66928;52.086;5.240;2023-05-25T11:17:59;102721.0;;;17.45;53.04
50652;BME280;66928;52.086;5.240;2023-05-25T11:19:40;102731.0;;;17.45;53.87
50652;BME280;66928;52.086;5.240;2023-05-25T11:21:39;102759.99999999999;;;17.13;55.2
50652;BME280;66928;52.086;5.240;2023-05-25T11:25:02;102745.0;;;16.93;56.94
50652;BME280;66928;52.086;5.240;2023-05-25T11:27:27;102739.00000000001;;;17.02;57.15
50652;BME280;66928;52.086;5.240;2023-05-25T11:29:12;102753.0;;;16.95;56.86
50652;BME280;66928;52.086;5.240;2023-05-25T11:30:48;102744.0;;;16.93;57.3
50652;BME280;66928;52.086;5.240;2023-05-25T11:32:25;102739.00000000001;;;16.84;57.13
50652;BME280;66928;52.086;5.240;2023-05-25T11:34:03;102736.99999999999;;;16.79;57.53
50652;BME280;66928;52.086;5.240;2023-05-25T11:37:16;102738.00000000001;;;16.63;56.89
50652;BME280;66928;52.086;5.240;2023-05-25T11:38:52;102731.0;;;16.61;57.36
50652;BME280;66928;52.086;5.240;2023-05-25T11:40:29;102743.0;;;16.63;57.45
50652;BME280;66928;52.086;5.240;2023-05-25T11:43:44;102741.00000000001;;;16.55;57.19
50652;BME280;66928;52.086;5.240;2023-05-25T11:45:21;102740.00000000001;;;16.54;56.68
50652;BME280;66928;52.086;5.240;2023-05-25T11:46:59;102728.0;;;16.55;56.37
50652;BME280;66928;52.086;5.240;2023-05-25T11:48:41;102734.99999999999;;;16.53;56.24
50652;BME280;66928;52.086;5.240;2023-05-25T11:51:56;102729.0;;;16.59;56.0
50652;BME280;66928;52.086;5.240;2023-05-25T11:53:32;102729.0;;;16.59;55.44
50652;BME280;66928;52.086;5.240;2023-05-25T11:55:10;102726.0;;;16.5;55.13
50652;BME280;66928;52.086;5.240;2023-05-25T11:56:48;102726.0;;;16.45;52.79
50652;BME280;66928;52.086;5.240;2023-05-25T12:00:00;102709.99999999999;;;16.53;52.59
50652;BME280;66928;52.086;5.240;2023-05-25T12:01:36;102725.0;;;16.52;54.33
50652;BME280;66928;52.086;5.240;2023-05-25T12:03:28;102714.00000000001;;;16.62;54.72
50652;BME280;66928;52.086;5.240;2023-05-25T12:06:42;102711.99999999999;;;16.89;54.32
50652;BME280;66928;52.086;5.240;2023-05-25T12:08:30;102722.0;;;16.9;53.71
50652;BME280;66928;52.086;5.240;2023-05-25T12:10:07;102708.0;;;16.79;53.95
50652;BME280;66928;52.086;5.240;2023-05-25T12:11:44;102723.0;;;16.87;54.36
50652;BME280;66928;52.086;5.240;2023-05-25T12:14:57;102708.99999999999;;;16.86;54.4
50652;BME280;66928;52.086;5.240;2023-05-25T12:16:34;102699.0;;;16.96;53.23
50652;BME280;66928;52.086;5.240;2023-05-25T12:18:10;102697.0;;;17.02;53.4
50652;BME280;66928;52.086;5.240;2023-05-25T12:21:23;102704.0;;;17.13;52.66
50652;BME280;66928;52.086;5.240;2023-05-25T12:22:59;102705.0;;;17.11;52.12
50652;BME280;66928;52.086;5.240;2023-05-25T12:24:36;102711.99999999999;;;17.14;52.05
50652;BME280;66928;52.086;5.240;2023-05-25T12:26:14;102706.0;;;17.05;51.84
50652;BME280;66928;52.086;5.240;2023-05-25T12:29:45;102705.0;;;17.31;51.37
50652;BME280;66928;52.086;5.240;2023-05-25T12:31:23;102708.99999999999;;;17.34;50.36
50652;BME280;66928;52.086;5.240;2023-05-25T12:33:00;102708.99999999999;;;17.34;49.88
50652;BME280;66928;52.086;5.240;2023-05-25T12:34:36;102713.00000000001;;;17.27;50.53
50652;BME280;66928;52.086;5.240;2023-05-25T12:37:49;102703.0;;;17.16;49.98
50652;BME280;66928;52.086;5.240;2023-05-25T12:39:33;102704.0;;;17.06;51.08
50652;BME280;66928;52.086;5.240;2023-05-25T12:41:10;102711.99999999999;;;17.11;51.0
50652;BME280;66928;52.086;5.240;2023-05-25T12:44:32;102703.0;;;17.21;51.11
50652;BME280;66928;52.086;5.240;2023-05-25T12:46:08;102707.0;;;17.29;51.91
50652;BME280;66928;52.086;5.240;2023-05-25T12:47:44;102714.00000000001;;;17.36;52.36
50652;BME280;66928;52.086;5.240;2023-05-25T12:49:25;102718.0;;;17.07;54.17
50652;BME280;66928;52.086;5.240;2023-05-25T12:52:40;102719.0;;;17.02;54.42
50652;BME280;66928;52.086;5.240;2023-05-25T12:54:32;102717.0;;;16.86;54.28
50652;BME280;66928;52.086;5.240;2023-05-25T12:56:08;102725.0;;;16.77;54.71
50652;BME280;66928;52.086;5.240;2023-05-25T12:57:44;102726.0;;;16.86;54.37
50652;BME280;66928;52.086;5.240;2023-05-25T13:00:58;102731.0;;;16.77;54.13
50652;BME280;66928;52.086;5.240;2023-05-25T13:02:34;102709.99999999999;;;16.7;54.47
50652;BME280;66928;52.086;5.240;2023-05-25T13:04:10;102715.00000000001;;;16.81;54.34
50652;BME280;66928;52.086;5.240;2023-05-25T13:07:22;102709.99999999999;;;16.68;54.29
50652;BME280;66928;52.086;5.240;2023-05-25T13:08:58;102709.99999999999;;;16.75;54.2
50652;BME280;66928;52.086;5.240;2023-05-25T13:10:36;102711.99999999999;;;16.63;54.26
50652;BME280;66928;52.086;5.240;2023-05-25T13:12:12;102705.0;;;16.68;54.15
50652;BME280;66928;52.086;5.240;2023-05-25T13:15:25;102707.0;;;16.78;53.81
50652;BME280;66928;52.086;5.240;2023-05-25T13:17:02;102709.99999999999;;;17.02;52.99
50652;BME280;66928;52.086;5.240;2023-05-25T13:18:39;102706.0;;;17.02;53.1
50652;BME280;66928;52.086;5.240;2023-05-25T13:21:51;102705.0;;;17.02;53.04
50652;BME280;66928;52.086;5.240;2023-05-25T13:23:29;102695.0;;;17.07;53.07
50652;BME280;66928;52.086;5.240;2023-05-25T13:25:06;102692.0;;;17.16;53.01
50652;BME280;66928;52.086;5.240;2023-05-25T13:28:19;102692.0;;;17.23;52.6
50652;BME280;66928;52.086;5.240;2023-05-25T13:29:55;102692.0;;;17.36;52.19
50652;BME280;66928;52.086;5.240;2023-05-25T13:31:32;102689.00000000001;;;17.3;52.29
50652;BME280;66928;52.086;5.240;2023-05-25T13:33:08;102696.0;;;17.09;52.84
50652;BME280;66928;52.086;5.240;2023-05-25T13:36:21;102699.0;;;17.29;52.8
50652;BME280;66928;52.086;5.240;2023-05-25T13:37:57;102692.0;;;17.22;51.71
50652;BME280;66928;52.086;5.240;2023-05-25T13:39:33;102686.99999999999;;;17.16;52.13
50652;BME280;66928;52.086;5.240;2023-05-25T13:42:45;102691.00000000001;;;17.28;51.75
50652;BME280;66928;52.086;5.240;2023-05-25T13:44:22;102684.99999999999;;;17.25;51.67
50652;BME280;66928;52.086;5.240;2023-05-25T13:45:58;102680.0;;;17.31;51.25
50652;BME280;66928;52.086;5.240;2023-05-25T13:49:10;102691.00000000001;;;17.43;50.83
50652;BME280;66928;52.086;5.240;2023-05-25T13:50:46;102678.0;;;17.43;50.35
50652;BME280;66928;52.086;5.240;2023-05-25T13:52:22;102678.0;;;17.43;50.38
50652;BME280;66928;52.086;5.240;2023-05-25T13:53:59;102671.0;;;17.54;50.43
50652;BME280;66928;52.086;5.240;2023-05-25T13:57:11;102692.0;;;17.5;49.67
50652;BME280;66928;52.086;5.240;2023-05-25T13:58:47;102680.0;;;17.41;49.82
50652;BME280;66928;52.086;5.240;2023-05-25T14:00:23;102679.0;;;17.45;49.7
50652;BME280;66928;52.086;5.240;2023-05-25T14:03:36;102677.0;;;17.25;49.75
50652;BME280;66928;52.086;5.240;2023-05-25T14:05:13;102671.0;;;17.22;50.13
50652;BME280;66928;52.086;5.240;2023-05-25T14:06:49;102672.0;;;17.27;50.22
50652;BME280;66928;52.086;5.240;2023-05-25T14:10:01;102668.0;;;17.36;50.05
50652;BME280;66928;52.086;5.240;2023-05-25T14:11:37;102677.0;;;17.34;49.99
50652;BME280;66928;52.086;5.240;2023-05-25T14:13:13;102674.0;;;17.18;50.19
50652;BME280;66928;52.086;5.240;2023-05-25T14:16:26;102673.0;;;17.43;49.58
50652;BME280;66928;52.086;5.240;2023-05-25T14:18:03;102670.0;;;17.45;49.22
50652;BME280;66928;52.086;5.240;2023-05-25T14:19:40;102667.0;;;17.62;48.63
50652;BME280;66928;52.086;5.240;2023-05-25T14:21:16;102661.99999999999;;;17.91;48.21
50652;BME280;66928;52.086;5.240;2023-05-25T14:24:28;102679.0;;;17.93;48.15
50652;BME280;66928;52.086;5.240;2023-05-25T14:26:05;102668.0;;;17.95;47.6
50652;BME280;66928;52.086;5.240;2023-05-25T14:27:41;102666.00000000001;;;18.0;47.55
50652;BME280;66928;52.086;5.240;2023-05-25T14:30:53;102665.00000000001;;;17.87;47.74
50652;BME280;66928;52.086;5.240;2023-05-25T14:32:29;102667.0;;;17.71;48.26
50652;BME280;66928;52.086;5.240;2023-05-25T14:34:05;102670.0;;;17.64;48.25
50652;BME280;66928;52.086;5.240;2023-05-25T14:37:18;102676.0;;;17.37;48.93
50652;BME280;66928;52.086;5.240;2023-05-25T14:38:54;102663.00000000001;;;17.25;49.26
50652;BME280;66928;52.086;5.240;2023-05-25T14:40:30;102661.99999999999;;;16.93;49.86
50652;BME280;66928;52.086;5.240;2023-05-25T14:42:06;102655.0;;;17.18;49.53
50652;BME280;66928;52.086;5.240;2023-05-25T14:45:18;102678.0;;;17.41;48.73
50652;BME280;66928;52.086;5.240;2023-05-25T14:46:55;102666.00000000001;;;17.48;49.14
50652;BME280;66928;52.086;5.240;2023-05-25T14:48:31;102658.99999999999;;;17.52;48.72
50652;BME280;66928;52.086;5.240;2023-05-25T14:51:43;102658.0;;;17.63;48.68
50652;BME280;66928;52.086;5.240;2023-05-25T14:53:19;102658.99999999999;;;17.47;48.99
50652;BME280;66928;52.086;5.240;2023-05-25T14:54:55;102661.99999999999;;;17.43;49.41
50652;BME280;66928;52.086;5.240;2023-05-25T14:58:08;102673.0;;;17.43;48.62
50652;BME280;66928;52.086;5.240;2023-05-25T14:59:44;102665.00000000001;;;17.43;48.85
50652;BME280;66928;52.086;5.240;2023-05-25T15:01:20;102658.99999999999;;;17.38;48.79
50652;BME280;66928;52.086;5.240;2023-05-25T15:04:32;102653.0;;;17.55;48.35
50652;BME280;66928;52.086;5.240;2023-05-25T15:06:08;102658.99999999999;;;17.63;48.5
50652;BME280;66928;52.086;5.240;2023-05-25T15:07:44;102658.0;;;17.77;48.83
50652;BME280;66928;52.086;5.240;2023-05-25T15:09:21;102658.99999999999;;;17.73;48.07
50652;BME280;66928;52.086;5.240;2023-05-25T15:12:33;102655.0;;;17.75;48.24
50652;BME280;66928;52.086;5.240;2023-05-25T15:14:09;102657.0;;;17.66;48.37
50652;BME280;66928;52.086;5.240;2023-05-25T15:15:45;102661.99999999999;;;17.52;48.27
50652;BME280;66928;52.086;5.240;2023-05-25T15:18:57;102653.0;;;17.57;47.9
50652;BME280;66928;52.086;5.240;2023-05-25T15:20:34;102652.0;;;17.59;48.29
50652;BME280;66928;52.086;5.240;2023-05-25T15:22:10;102649.0;;;17.66;48.23
50652;BME280;66928;52.086;5.240;2023-05-25T15:25:22;102656.0;;;17.63;47.47
50652;BME280;66928;52.086;5.240;2023-05-25T15:26:58;102652.0;;;17.7;47.14
50652;BME280;66928;52.086;5.240;2023-05-25T15:28:34;102650.0;;;17.66;47.91
50652;BME280;66928;52.086;5.240;2023-05-25T15:31:49;102649.0;;;17.61;48.15
50652;BME280;66928;52.086;5.240;2023-05-25T15:33:27;102657.0;;;17.55;47.94
50652;BME280;66928;52.086;5.240;2023-05-25T15:35:04;102655.0;;;17.48;47.48
50652;BME280;66928;52.086;5.240;2023-05-25T15:36:40;102649.0;;;17.47;47.84
50652;BME280;66928;52.086;5.240;2023-05-25T15:39:52;102653.0;;;17.5;47.97
50652;BME280;66928;52.086;5.240;2023-05-25T15:41:28;102648.0;;;17.5;48.02
50652;BME280;66928;52.086;5.240;2023-05-25T15:43:04;102645.0;;;17.45;48.47
50652;BME280;66928;52.086;5.240;2023-05-25T15:46:17;102649.0;;;17.45;48.36
50652;BME280;66928;52.086;5.240;2023-05-25T15:47:53;102651.0;;;17.52;48.64
50652;BME280;66928;52.086;5.240;2023-05-25T15:49:29;102647.0;;;17.36;49.01
50652;BME280;66928;52.086;5.240;2023-05-25T15:51:05;102650.0;;;17.32;49.41
50652;BME280;66928;52.086;5.240;2023-05-25T15:54:18;102649.0;;;17.5;49.17
50652;BME280;66928;52.086;5.240;2023-05-25T15:55:54;102644.0;;;17.32;49.41
50652;BME280;66928;52.086;5.240;2023-05-25T15:57:30;102648.0;;;17.2;49.95
50652;BME280;66928;52.086;5.240;2023-05-25T16:00:42;102657.0;;;17.34;49.91
50652;BME280;66928;52.086;5.240;2023-05-25T16:02:18;102639.00000000001;;;17.25;49.89
50652;BME280;66928;52.086;5.240;2023-05-25T16:03:54;102643.0;;;17.45;49.79
50652;BME280;66928;52.086;5.240;2023-05-25T16:07:07;102639.00000000001;;;17.59;49.55